Saint-Nicolas, Canada
Current Conditions -  °F | °C
As of 12:00 PM on Friday 19 Dec 2014 (Local Time) from CYQB Reporting Station
Few Clouds Few Clouds  
Wind Chill: 11°   Ceiling: Unl
Heat Index: 23°   Visibility: 20mi
Dew Point: 16°   Wind: 13mph
Humidity: 74%   Direction: 220°SW
Pressure: 29.99"   Gusts: NA
Location:  46.7°N, 71.4°W
Report Text: CYQB 191700Z 22011KT 20SM FEW080 M05/M09 A2999 RMK AC1 AC TR SLP161
Loading
Personal Weather Stations






























Interactive Weather Map New forecast layout! Learn more

10-Day Weather Forecast

Advertisements
Track Severe Weather on mobile